首页
METAR-TAF:

METAR-TAF

机场 :

Lawrence Municipal Airport

劳伦斯, 堪薩斯州, 美国

纬度: 39-00-30N, 经度: 095-12-42W, 海拔: 253米

当前天气观测

该预报发布于31分钟前的15:52 UTC
风速3节,风向多变
温度 19°C
湿度 37%
气压 1023 hPa
能見度: 16.1公里
天空无云

METAR: KLWC 241552Z AUTO VRB03KT 10SM CLR 19/04 A3021 RMK AO1 SLP228 T01890039 $

时间: 11:23 (16:23 UTC)


TAF: 丢失

超过4000个机场的气象观测和天气预报(METAR&TAF报告)。

可查询的气象台以黄色和红色小点在地图上表示。

将鼠标移到小点上方,可查看气象台名称。

然后点击查看天气观测和预报。

如需切换地图:点击带黑十字的绿色按钮放大地图;点击带横线的绿色按钮缩小地图;或者点击绿色箭头查看邻近地区的地图。


METAR-TAF: